sensor_id;sensor_type;location;lat;lon;timestamp;temperature;humidity
8593;DHT22;4334;49.982;8.398;2024-01-15T00:00:17;-1.40;99.90
8593;DHT22;4334;49.982;8.398;2024-01-15T00:02:43;-1.50;99.90
8593;DHT22;4334;49.982;8.398;2024-01-15T00:05:10;-1.40;99.90
8593;DHT22;4334;49.982;8.398;2024-01-15T00:07:37;-1.40;99.90
8593;DHT22;4334;49.982;8.398;2024-01-15T00:10:04;-1.40;99.90
8593;DHT22;4334;49.982;8.398;2024-01-15T00:12:31;-1.50;99.90
8593;DHT22;4334;49.982;8.398;2024-01-15T00:14:58;-1.50;99.90
8593;DHT22;4334;49.982;8.398;2024-01-15T00:17:26;1.00;99.90
8593;DHT22;4334;49.982;8.398;2024-01-15T00:19:52;-1.50;99.90
8593;DHT22;4334;49.982;8.398;2024-01-15T00:22:19;-1.40;99.90
8593;DHT22;4334;49.982;8.398;2024-01-15T00:24:46;-1.40;99.90
8593;DHT22;4334;49.982;8.398;2024-01-15T00:27:12;-1.40;99.90
8593;DHT22;4334;49.982;8.398;2024-01-15T00:29:39;1.00;99.90
8593;DHT22;4334;49.982;8.398;2024-01-15T00:32:06;-1.40;99.90
8593;DHT22;4334;49.982;8.398;2024-01-15T00:34:34;-1.40;99.90
8593;DHT22;4334;49.982;8.398;2024-01-15T00:37:00;-1.10;99.90
8593;DHT22;4334;49.982;8.398;2024-01-15T00:39:27;-1.40;99.90
8593;DHT22;4334;49.982;8.398;2024-01-15T00:41:54;-1.30;99.90
8593;DHT22;4334;49.982;8.398;2024-01-15T00:44:20;-1.30;99.90
8593;DHT22;4334;49.982;8.398;2024-01-15T00:46:47;-1.40;99.90
8593;DHT22;4334;49.982;8.398;2024-01-15T00:49:14;2.60;99.90
8593;DHT22;4334;49.982;8.398;2024-01-15T00:51:42;-1.30;99.90
8593;DHT22;4334;49.982;8.398;2024-01-15T00:54:09;-1.30;99.90
8593;DHT22;4334;49.982;8.398;2024-01-15T00:56:36;-1.10;99.90
8593;DHT22;4334;49.982;8.398;2024-01-15T00:59:03;-1.30;99.90
8593;DHT22;4334;49.982;8.398;2024-01-15T01:01:30;-1.30;99.90
8593;DHT22;4334;49.982;8.398;2024-01-15T01:03:56;-1.30;99.90
8593;DHT22;4334;49.982;8.398;2024-01-15T01:06:23;-1.30;99.90
8593;DHT22;4334;49.982;8.398;2024-01-15T01:08:51;-1.30;99.90
8593;DHT22;4334;49.982;8.398;2024-01-15T01:11:18;-1.30;99.90
8593;DHT22;4334;49.982;8.398;2024-01-15T01:13:44;-1.30;99.90
8593;DHT22;4334;49.982;8.398;2024-01-15T01:16:11;-1.30;99.90
8593;DHT22;4334;49.982;8.398;2024-01-15T01:18:38;-1.30;99.90
8593;DHT22;4334;49.982;8.398;2024-01-15T01:21:04;-1.20;99.90
8593;DHT22;4334;49.982;8.398;2024-01-15T01:23:31;-1.20;99.90
8593;DHT22;4334;49.982;8.398;2024-01-15T01:25:59;-1.20;99.90
8593;DHT22;4334;49.982;8.398;2024-01-15T01:28:26;-1.20;99.90
8593;DHT22;4334;49.982;8.398;2024-01-15T01:30:52;-1.30;99.90
8593;DHT22;4334;49.982;8.398;2024-01-15T01:33:19;-1.20;99.90
8593;DHT22;4334;49.982;8.398;2024-01-15T01:35:46;-1.20;99.90
8593;DHT22;4334;49.982;8.398;2024-01-15T01:38:13;-1.20;99.90
8593;DHT22;4334;49.982;8.398;2024-01-15T01:40:39;-1.20;99.90
8593;DHT22;4334;49.982;8.398;2024-01-15T01:43:09;-1.10;99.90
8593;DHT22;4334;49.982;8.398;2024-01-15T01:45:35;-1.10;99.90
8593;DHT22;4334;49.982;8.398;2024-01-15T01:48:03;-1.10;99.90
8593;DHT22;4334;49.982;8.398;2024-01-15T01:50:31;-1.10;99.90
8593;DHT22;4334;49.982;8.398;2024-01-15T01:52:58;-1.10;99.90
8593;DHT22;4334;49.982;8.398;2024-01-15T01:55:27;-1.10;99.90
8593;DHT22;4334;49.982;8.398;2024-01-15T01:57:55;-1.10;99.90
8593;DHT22;4334;49.982;8.398;2024-01-15T02:00:23;-1.10;99.90
8593;DHT22;4334;49.982;8.398;2024-01-15T02:02:50;-1.10;99.90
8593;DHT22;4334;49.982;8.398;2024-01-15T02:05:18;-1.10;99.90
8593;DHT22;4334;49.982;8.398;2024-01-15T02:07:45;-1.10;99.90
8593;DHT22;4334;49.982;8.398;2024-01-15T02:10:13;-1.10;99.90
8593;DHT22;4334;49.982;8.398;2024-01-15T02:12:39;0.00;99.90
8593;DHT22;4334;49.982;8.398;2024-01-15T02:15:06;-1.10;99.90
8593;DHT22;4334;49.982;8.398;2024-01-15T02:17:35;-1.10;99.90
8593;DHT22;4334;49.982;8.398;2024-01-15T02:20:02;-1.10;99.90
8593;DHT22;4334;49.982;8.398;2024-01-15T02:22:28;-1.10;99.90
8593;DHT22;4334;49.982;8.398;2024-01-15T02:24:56;-1.00;99.90
8593;DHT22;4334;49.982;8.398;2024-01-15T02:27:23;-1.10;99.90
8593;DHT22;4334;49.982;8.398;2024-01-15T02:29:51;-1.10;99.90
8593;DHT22;4334;49.982;8.398;2024-01-15T02:32:17;-1.10;99.90
8593;DHT22;4334;49.982;8.398;2024-01-15T02:34:44;-1.10;99.90
8593;DHT22;4334;49.982;8.398;2024-01-15T02:37:11;-1.10;99.90
8593;DHT22;4334;49.982;8.398;2024-01-15T02:39:37;-1.00;99.90
8593;DHT22;4334;49.982;8.398;2024-01-15T02:42:06;-0.90;99.90
8593;DHT22;4334;49.982;8.398;2024-01-15T02:44:32;-1.00;99.90
8593;DHT22;4334;49.982;8.398;2024-01-15T02:46:59;-0.90;99.90
8593;DHT22;4334;49.982;8.398;2024-01-15T02:49:26;0.20;99.90
8593;DHT22;4334;49.982;8.398;2024-01-15T02:51:52;-0.90;99.90
8593;DHT22;4334;49.982;8.398;2024-01-15T02:54:19;-0.90;99.90
8593;DHT22;4334;49.982;8.398;2024-01-15T02:56:45;-0.90;99.90
8593;DHT22;4334;49.982;8.398;2024-01-15T02:59:13;-0.90;99.90
8593;DHT22;4334;49.982;8.398;2024-01-15T03:01:40;-0.80;99.90
8593;DHT22;4334;49.982;8.398;2024-01-15T03:04:07;-0.80;99.90
8593;DHT22;4334;49.982;8.398;2024-01-15T03:06:33;-0.80;99.90
8593;DHT22;4334;49.982;8.398;2024-01-15T03:09:00;0.70;99.90
8593;DHT22;4334;49.982;8.398;2024-01-15T03:11:29;-0.80;99.90
8593;DHT22;4334;49.982;8.398;2024-01-15T03:13:55;-0.70;99.90
8593;DHT22;4334;49.982;8.398;2024-01-15T03:16:23;-0.80;99.90
8593;DHT22;4334;49.982;8.398;2024-01-15T03:18:50;-0.90;99.90
8593;DHT22;4334;49.982;8.398;2024-01-15T03:21:17;-0.80;99.90
8593;DHT22;4334;49.982;8.398;2024-01-15T03:23:43;-0.80;99.90
8593;DHT22;4334;49.982;8.398;2024-01-15T03:26:10;-0.80;99.90
8593;DHT22;4334;49.982;8.398;2024-01-15T03:28:36;-0.80;99.90
8593;DHT22;4334;49.982;8.398;2024-01-15T03:31:03;-0.90;99.90
8593;DHT22;4334;49.982;8.398;2024-01-15T03:33:31;-0.90;99.90
8593;DHT22;4334;49.982;8.398;2024-01-15T03:35:59;-0.80;99.90
8593;DHT22;4334;49.982;8.398;2024-01-15T03:38:27;-0.80;99.90
8593;DHT22;4334;49.982;8.398;2024-01-15T03:40:54;-0.80;99.90
8593;DHT22;4334;49.982;8.398;2024-01-15T03:43:21;-0.80;99.90
8593;DHT22;4334;49.982;8.398;2024-01-15T03:45:47;-0.80;99.90
8593;DHT22;4334;49.982;8.398;2024-01-15T03:48:14;-0.40;99.90
8593;DHT22;4334;49.982;8.398;2024-01-15T03:50:42;-0.80;99.90
8593;DHT22;4334;49.982;8.398;2024-01-15T03:53:09;-0.70;99.90
8593;DHT22;4334;49.982;8.398;2024-01-15T03:55:36;-0.70;99.90
8593;DHT22;4334;49.982;8.398;2024-01-15T03:58:03;-0.70;99.90
8593;DHT22;4334;49.982;8.398;2024-01-15T04:00:29;3.30;99.90
8593;DHT22;4334;49.982;8.398;2024-01-15T04:02:56;-0.80;99.90
8593;DHT22;4334;49.982;8.398;2024-01-15T04:05:23;-0.70;99.90
8593;DHT22;4334;49.982;8.398;2024-01-15T04:07:51;-0.70;99.90
8593;DHT22;4334;49.982;8.398;2024-01-15T04:10:17;-0.70;99.90
8593;DHT22;4334;49.982;8.398;2024-01-15T04:12:44;-0.70;99.90
8593;DHT22;4334;49.982;8.398;2024-01-15T04:15:12;-0.60;99.90
8593;DHT22;4334;49.982;8.398;2024-01-15T04:17:38;-0.60;99.90
8593;DHT22;4334;49.982;8.398;2024-01-15T04:20:06;-0.70;99.90
8593;DHT22;4334;49.982;8.398;2024-01-15T04:22:33;-0.70;99.90
8593;DHT22;4334;49.982;8.398;2024-01-15T04:25:02;-0.70;99.90
8593;DHT22;4334;49.982;8.398;2024-01-15T04:27:28;-0.70;99.90
8593;DHT22;4334;49.982;8.398;2024-01-15T04:29:55;-0.70;99.90
8593;DHT22;4334;49.982;8.398;2024-01-15T04:32:22;-0.70;99.90
8593;DHT22;4334;49.982;8.398;2024-01-15T04:34:48;-0.60;99.90
8593;DHT22;4334;49.982;8.398;2024-01-15T04:37:15;-0.30;99.90
8593;DHT22;4334;49.982;8.398;2024-01-15T04:39:42;-0.60;99.90
8593;DHT22;4334;49.982;8.398;2024-01-15T04:42:10;-0.60;99.90
8593;DHT22;4334;49.982;8.398;2024-01-15T04:44:36;-0.60;99.90
8593;DHT22;4334;49.982;8.398;2024-01-15T04:47:03;-0.50;99.90
8593;DHT22;4334;49.982;8.398;2024-01-15T04:49:30;-0.60;99.90
8593;DHT22;4334;49.982;8.398;2024-01-15T04:51:57;-0.60;99.90
8593;DHT22;4334;49.982;8.398;2024-01-15T04:54:24;-0.60;99.90
8593;DHT22;4334;49.982;8.398;2024-01-15T04:56:50;-0.60;99.90
8593;DHT22;4334;49.982;8.398;2024-01-15T04:59:18;-0.60;99.90
8593;DHT22;4334;49.982;8.398;2024-01-15T05:01:45;-0.70;99.90
8593;DHT22;4334;49.982;8.398;2024-01-15T05:04:12;0.60;99.90
8593;DHT22;4334;49.982;8.398;2024-01-15T05:06:39;-0.60;99.90
8593;DHT22;4334;49.982;8.398;2024-01-15T05:09:06;-0.60;99.90
8593;DHT22;4334;49.982;8.398;2024-01-15T05:11:32;-0.60;99.90
8593;DHT22;4334;49.982;8.398;2024-01-15T05:13:59;-0.60;99.90
8593;DHT22;4334;49.982;8.398;2024-01-15T05:16:27;-0.60;99.90
8593;DHT22;4334;49.982;8.398;2024-01-15T05:18:54;-0.60;99.90
8593;DHT22;4334;49.982;8.398;2024-01-15T05:21:21;-0.50;99.90
8593;DHT22;4334;49.982;8.398;2024-01-15T05:23:47;-0.50;99.90
8593;DHT22;4334;49.982;8.398;2024-01-15T05:26:14;-0.50;99.90
8593;DHT22;4334;49.982;8.398;2024-01-15T05:28:41;-0.50;99.90
8593;DHT22;4334;49.982;8.398;2024-01-15T05:31:08;-0.50;99.90
8593;DHT22;4334;49.982;8.398;2024-01-15T05:33:36;-0.50;99.90
8593;DHT22;4334;49.982;8.398;2024-01-15T05:36:04;-0.50;99.90
8593;DHT22;4334;49.982;8.398;2024-01-15T05:38:30;-0.60;99.90
8593;DHT22;4334;49.982;8.398;2024-01-15T05:40:57;-0.60;99.90
8593;DHT22;4334;49.982;8.398;2024-01-15T05:43:24;1.80;99.90
8593;DHT22;4334;49.982;8.398;2024-01-15T05:45:50;0.40;99.90
8593;DHT22;4334;49.982;8.398;2024-01-15T05:48:17;-0.70;99.90
8593;DHT22;4334;49.982;8.398;2024-01-15T05:50:45;1.60;99.90
8593;DHT22;4334;49.982;8.398;2024-01-15T05:53:12;-0.70;99.90
8593;DHT22;4334;49.982;8.398;2024-01-15T05:55:39;-0.70;99.90
8593;DHT22;4334;49.982;8.398;2024-01-15T05:58:05;3.00;99.90
8593;DHT22;4334;49.982;8.398;2024-01-15T06:00:32;-0.70;99.90
8593;DHT22;4334;49.982;8.398;2024-01-15T06:03:00;-0.70;99.90
8593;DHT22;4334;49.982;8.398;2024-01-15T06:05:27;-0.70;99.90
8593;DHT22;4334;49.982;8.398;2024-01-15T06:07:58;-0.70;99.90
8593;DHT22;4334;49.982;8.398;2024-01-15T06:10:25;-0.70;99.90
8593;DHT22;4334;49.982;8.398;2024-01-15T06:12:52;-0.70;99.90
8593;DHT22;4334;49.982;8.398;2024-01-15T06:15:18;-0.70;99.90
8593;DHT22;4334;49.982;8.398;2024-01-15T06:17:45;-0.70;99.90
8593;DHT22;4334;49.982;8.398;2024-01-15T06:20:12;-0.70;99.90
8593;DHT22;4334;49.982;8.398;2024-01-15T06:22:39;-0.60;99.90
8593;DHT22;4334;49.982;8.398;2024-01-15T06:25:08;-0.60;99.90
8593;DHT22;4334;49.982;8.398;2024-01-15T06:27:35;-0.60;99.90
8593;DHT22;4334;49.982;8.398;2024-01-15T06:30:01;-0.50;99.90
8593;DHT22;4334;49.982;8.398;2024-01-15T06:32:28;-0.60;99.90
8593;DHT22;4334;49.982;8.398;2024-01-15T06:34:55;-0.60;99.90
8593;DHT22;4334;49.982;8.398;2024-01-15T06:37:22;-0.60;99.90
8593;DHT22;4334;49.982;8.398;2024-01-15T06:39:49;-0.60;99.90
8593;DHT22;4334;49.982;8.398;2024-01-15T06:42:17;-0.10;99.90
8593;DHT22;4334;49.982;8.398;2024-01-15T06:44:43;0.50;99.90
8593;DHT22;4334;49.982;8.398;2024-01-15T06:47:10;-0.60;99.90
8593;DHT22;4334;49.982;8.398;2024-01-15T06:49:37;-0.60;99.90
8593;DHT22;4334;49.982;8.398;2024-01-15T06:52:04;-0.60;99.90
8593;DHT22;4334;49.982;8.398;2024-01-15T06:54:31;-0.60;99.90
8593;DHT22;4334;49.982;8.398;2024-01-15T06:56:57;-0.50;99.90
8593;DHT22;4334;49.982;8.398;2024-01-15T06:59:25;-0.50;99.90
8593;DHT22;4334;49.982;8.398;2024-01-15T07:01:52;-0.50;99.90
8593;DHT22;4334;49.982;8.398;2024-01-15T07:04:18;-0.30;99.90
8593;DHT22;4334;49.982;8.398;2024-01-15T07:06:45;-0.50;99.90
8593;DHT22;4334;49.982;8.398;2024-01-15T07:09:13;-0.40;99.90
8593;DHT22;4334;49.982;8.398;2024-01-15T07:11:44;-0.40;99.90
8593;DHT22;4334;49.982;8.398;2024-01-15T07:14:11;-0.50;99.90
8593;DHT22;4334;49.982;8.398;2024-01-15T07:16:39;-0.50;99.90
8593;DHT22;4334;49.982;8.398;2024-01-15T07:19:05;-0.50;99.90
8593;DHT22;4334;49.982;8.398;2024-01-15T07:21:32;-0.50;99.90
8593;DHT22;4334;49.982;8.398;2024-01-15T07:23:59;-0.50;99.90
8593;DHT22;4334;49.982;8.398;2024-01-15T07:26:26;-0.40;99.90
8593;DHT22;4334;49.982;8.398;2024-01-15T07:28:53;-0.40;99.90
8593;DHT22;4334;49.982;8.398;2024-01-15T07:31:19;-0.40;99.90
8593;DHT22;4334;49.982;8.398;2024-01-15T07:33:48;-0.40;99.90
8593;DHT22;4334;49.982;8.398;2024-01-15T07:36:14;-0.30;99.90
8593;DHT22;4334;49.982;8.398;2024-01-15T07:38:41;-0.30;99.90
8593;DHT22;4334;49.982;8.398;2024-01-15T07:41:08;-0.20;99.90
8593;DHT22;4334;49.982;8.398;2024-01-15T07:43:35;-0.20;99.90
8593;DHT22;4334;49.982;8.398;2024-01-15T07:46:01;-0.20;99.90
8593;DHT22;4334;49.982;8.398;2024-01-15T07:48:29;-0.20;99.90
8593;DHT22;4334;49.982;8.398;2024-01-15T07:50:56;-0.20;99.90
8593;DHT22;4334;49.982;8.398;2024-01-15T07:53:23;-0.20;99.90
8593;DHT22;4334;49.982;8.398;2024-01-15T07:55:50;-0.10;99.90
8593;DHT22;4334;49.982;8.398;2024-01-15T07:58:17;-0.10;99.90
8593;DHT22;4334;49.982;8.398;2024-01-15T08:00:43;0.00;99.90
8593;DHT22;4334;49.982;8.398;2024-01-15T08:03:10;0.10;99.90
8593;DHT22;4334;49.982;8.398;2024-01-15T08:05:37;0.20;99.90
8593;DHT22;4334;49.982;8.398;2024-01-15T08:08:05;0.20;99.90
8593;DHT22;4334;49.982;8.398;2024-01-15T08:10:32;0.20;99.90
8593;DHT22;4334;49.982;8.398;2024-01-15T08:12:59;0.20;99.90
8593;DHT22;4334;49.982;8.398;2024-01-15T08:15:25;0.30;99.90
8593;DHT22;4334;49.982;8.398;2024-01-15T08:17:52;0.30;99.90
8593;DHT22;4334;49.982;8.398;2024-01-15T08:20:19;0.40;99.90
8593;DHT22;4334;49.982;8.398;2024-01-15T08:22:45;0.30;99.90
8593;DHT22;4334;49.982;8.398;2024-01-15T08:25:15;0.40;99.90
8593;DHT22;4334;49.982;8.398;2024-01-15T08:27:41;0.50;99.90
8593;DHT22;4334;49.982;8.398;2024-01-15T08:30:09;0.50;99.90
8593;DHT22;4334;49.982;8.398;2024-01-15T08:32:36;0.40;99.90
8593;DHT22;4334;49.982;8.398;2024-01-15T08:35:07;0.40;99.90
8593;DHT22;4334;49.982;8.398;2024-01-15T08:37:34;0.40;99.90
8593;DHT22;4334;49.982;8.398;2024-01-15T08:40:01;0.50;99.90
8593;DHT22;4334;49.982;8.398;2024-01-15T08:42:30;0.60;99.90
8593;DHT22;4334;49.982;8.398;2024-01-15T08:44:56;0.60;99.90
8593;DHT22;4334;49.982;8.398;2024-01-15T08:47:23;0.60;99.90
8593;DHT22;4334;49.982;8.398;2024-01-15T08:49:51;0.50;99.90
8593;DHT22;4334;49.982;8.398;2024-01-15T08:52:18;0.50;99.90
8593;DHT22;4334;49.982;8.398;2024-01-15T08:54:45;0.60;99.90
8593;DHT22;4334;49.982;8.398;2024-01-15T08:57:12;0.60;99.90
8593;DHT22;4334;49.982;8.398;2024-01-15T08:59:40;0.60;99.90
8593;DHT22;4334;49.982;8.398;2024-01-15T09:02:07;0.50;99.90
8593;DHT22;4334;49.982;8.398;2024-01-15T09:04:34;0.50;99.90
8593;DHT22;4334;49.982;8.398;2024-01-15T09:07:00;0.50;99.90
8593;DHT22;4334;49.982;8.398;2024-01-15T09:09:27;0.60;99.90
8593;DHT22;4334;49.982;8.398;2024-01-15T09:11:54;0.60;99.90
8593;DHT22;4334;49.982;8.398;2024-01-15T09:14:20;0.70;99.90
8593;DHT22;4334;49.982;8.398;2024-01-15T09:16:49;0.70;99.90
8593;DHT22;4334;49.982;8.398;2024-01-15T09:19:16;0.70;99.90
8593;DHT22;4334;49.982;8.398;2024-01-15T09:21:42;0.70;99.90
8593;DHT22;4334;49.982;8.398;2024-01-15T09:24:09;2.60;99.90
8593;DHT22;4334;49.982;8.398;2024-01-15T09:26:35;0.70;99.90
8593;DHT22;4334;49.982;8.398;2024-01-15T09:29:02;0.70;99.90
8593;DHT22;4334;49.982;8.398;2024-01-15T09:31:29;0.70;99.90
8593;DHT22;4334;49.982;8.398;2024-01-15T09:33:58;0.70;99.90
8593;DHT22;4334;49.982;8.398;2024-01-15T09:36:25;0.80;99.90
8593;DHT22;4334;49.982;8.398;2024-01-15T09:38:52;0.80;99.90
8593;DHT22;4334;49.982;8.398;2024-01-15T09:41:19;0.80;99.90
8593;DHT22;4334;49.982;8.398;2024-01-15T09:43:46;2.70;99.90
8593;DHT22;4334;49.982;8.398;2024-01-15T09:46:13;1.00;99.90
8593;DHT22;4334;49.982;8.398;2024-01-15T09:48:40;1.00;99.90
8593;DHT22;4334;49.982;8.398;2024-01-15T09:51:08;1.10;99.90
8593;DHT22;4334;49.982;8.398;2024-01-15T09:53:36;1.10;99.90
8593;DHT22;4334;49.982;8.398;2024-01-15T09:56:04;1.20;99.90
8593;DHT22;4334;49.982;8.398;2024-01-15T09:58:32;2.30;99.90
8593;DHT22;4334;49.982;8.398;2024-01-15T10:01:00;1.20;99.90
8593;DHT22;4334;49.982;8.398;2024-01-15T10:03:28;1.20;99.90
8593;DHT22;4334;49.982;8.398;2024-01-15T10:05:55;1.20;99.90
8593;DHT22;4334;49.982;8.398;2024-01-15T10:08:23;1.30;99.90
8593;DHT22;4334;49.982;8.398;2024-01-15T10:10:51;1.20;99.90
8593;DHT22;4334;49.982;8.398;2024-01-15T10:13:17;4.90;99.90
8593;DHT22;4334;49.982;8.398;2024-01-15T10:15:46;1.60;99.90
8593;DHT22;4334;49.982;8.398;2024-01-15T10:18:13;1.70;99.90
8593;DHT22;4334;49.982;8.398;2024-01-15T10:20:40;1.60;99.90
8593;DHT22;4334;49.982;8.398;2024-01-15T10:23:08;1.50;99.90
8593;DHT22;4334;49.982;8.398;2024-01-15T10:25:36;1.40;99.90
8593;DHT22;4334;49.982;8.398;2024-01-15T10:28:04;1.40;99.90
8593;DHT22;4334;49.982;8.398;2024-01-15T10:30:32;1.40;99.90
8593;DHT22;4334;49.982;8.398;2024-01-15T10:33:00;1.50;99.90
8593;DHT22;4334;49.982;8.398;2024-01-15T10:35:28;1.50;99.90
8593;DHT22;4334;49.982;8.398;2024-01-15T10:37:55;1.50;99.90
8593;DHT22;4334;49.982;8.398;2024-01-15T10:40:22;1.50;99.90
8593;DHT22;4334;49.982;8.398;2024-01-15T10:42:50;1.50;99.90
8593;DHT22;4334;49.982;8.398;2024-01-15T10:45:17;1.50;99.90
8593;DHT22;4334;49.982;8.398;2024-01-15T10:47:44;1.50;99.90
8593;DHT22;4334;49.982;8.398;2024-01-15T10:50:11;1.60;99.90
8593;DHT22;4334;49.982;8.398;2024-01-15T10:52:39;1.60;99.90
8593;DHT22;4334;49.982;8.398;2024-01-15T10:55:08;1.40;99.90
8593;DHT22;4334;49.982;8.398;2024-01-15T10:57:35;1.30;99.90
8593;DHT22;4334;49.982;8.398;2024-01-15T11:00:04;1.40;99.90
8593;DHT22;4334;49.982;8.398;2024-01-15T11:02:32;1.50;99.90
8593;DHT22;4334;49.982;8.398;2024-01-15T11:04:59;1.70;99.90
8593;DHT22;4334;49.982;8.398;2024-01-15T11:07:26;1.80;99.90
8593;DHT22;4334;49.982;8.398;2024-01-15T11:09:53;2.00;99.90
8593;DHT22;4334;49.982;8.398;2024-01-15T11:12:20;2.20;99.90
8593;DHT22;4334;49.982;8.398;2024-01-15T11:14:47;2.30;99.90
8593;DHT22;4334;49.982;8.398;2024-01-15T11:17:16;2.40;99.90
8593;DHT22;4334;49.982;8.398;2024-01-15T11:19:43;2.20;99.90
8593;DHT22;4334;49.982;8.398;2024-01-15T11:22:47;3.60;99.90
8593;DHT22;4334;49.982;8.398;2024-01-15T11:25:14;2.20;99.90
8593;DHT22;4334;49.982;8.398;2024-01-15T11:27:41;2.40;99.90
8593;DHT22;4334;49.982;8.398;2024-01-15T11:30:08;2.80;99.90
8593;DHT22;4334;49.982;8.398;2024-01-15T11:32:37;2.90;99.90
8593;DHT22;4334;49.982;8.398;2024-01-15T11:35:06;2.70;99.90
8593;DHT22;4334;49.982;8.398;2024-01-15T11:37:56;2.80;99.90
8593;DHT22;4334;49.982;8.398;2024-01-15T11:40:36;2.90;99.90
8593;DHT22;4334;49.982;8.398;2024-01-15T11:43:04;2.80;99.90
8593;DHT22;4334;49.982;8.398;2024-01-15T11:45:31;2.70;99.90
8593;DHT22;4334;49.982;8.398;2024-01-15T11:48:16;2.50;99.90
8593;DHT22;4334;49.982;8.398;2024-01-15T11:50:44;2.30;99.90
8593;DHT22;4334;49.982;8.398;2024-01-15T11:53:16;2.20;99.90
8593;DHT22;4334;49.982;8.398;2024-01-15T11:55:45;2.10;99.90
8593;DHT22;4334;49.982;8.398;2024-01-15T11:58:14;2.10;99.90
8593;DHT22;4334;49.982;8.398;2024-01-15T12:00:43;2.20;99.90
8593;DHT22;4334;49.982;8.398;2024-01-15T12:03:10;2.20;99.90
8593;DHT22;4334;49.982;8.398;2024-01-15T12:05:39;2.30;99.90
8593;DHT22;4334;49.982;8.398;2024-01-15T12:08:07;2.50;99.90
8593;DHT22;4334;49.982;8.398;2024-01-15T12:10:36;2.50;99.90
8593;DHT22;4334;49.982;8.398;2024-01-15T12:13:05;2.50;99.90
8593;DHT22;4334;49.982;8.398;2024-01-15T12:15:32;2.50;99.90
8593;DHT22;4334;49.982;8.398;2024-01-15T12:18:00;2.50;99.90
8593;DHT22;4334;49.982;8.398;2024-01-15T12:20:28;2.50;99.90
8593;DHT22;4334;49.982;8.398;2024-01-15T12:22:56;2.50;99.90
8593;DHT22;4334;49.982;8.398;2024-01-15T12:25:24;2.50;99.90
8593;DHT22;4334;49.982;8.398;2024-01-15T12:27:52;2.50;99.90
8593;DHT22;4334;49.982;8.398;2024-01-15T12:30:19;2.50;99.90
8593;DHT22;4334;49.982;8.398;2024-01-15T12:32:46;2.60;99.90
8593;DHT22;4334;49.982;8.398;2024-01-15T12:35:14;2.50;99.90
8593;DHT22;4334;49.982;8.398;2024-01-15T12:37:42;2.40;99.90
8593;DHT22;4334;49.982;8.398;2024-01-15T12:40:10;2.50;99.90
8593;DHT22;4334;49.982;8.398;2024-01-15T12:42:37;2.50;99.90
8593;DHT22;4334;49.982;8.398;2024-01-15T12:45:06;2.40;99.90
8593;DHT22;4334;49.982;8.398;2024-01-15T12:47:33;2.50;99.90
8593;DHT22;4334;49.982;8.398;2024-01-15T12:50:00;2.60;99.90
8593;DHT22;4334;49.982;8.398;2024-01-15T12:52:28;2.60;99.90
8593;DHT22;4334;49.982;8.398;2024-01-15T12:54:55;2.80;99.90
8593;DHT22;4334;49.982;8.398;2024-01-15T12:57:23;2.70;99.90
8593;DHT22;4334;49.982;8.398;2024-01-15T12:59:49;2.80;99.90
8593;DHT22;4334;49.982;8.398;2024-01-15T13:02:16;2.80;99.90
8593;DHT22;4334;49.982;8.398;2024-01-15T13:04:43;2.90;99.90
8593;DHT22;4334;49.982;8.398;2024-01-15T13:07:10;2.90;99.90
8593;DHT22;4334;49.982;8.398;2024-01-15T13:09:37;2.90;99.90
8593;DHT22;4334;49.982;8.398;2024-01-15T13:12:04;3.00;99.90
8593;DHT22;4334;49.982;8.398;2024-01-15T13:14:32;3.10;99.90
8593;DHT22;4334;49.982;8.398;2024-01-15T13:16:59;3.10;99.90
8593;DHT22;4334;49.982;8.398;2024-01-15T13:19:26;3.00;99.90
8593;DHT22;4334;49.982;8.398;2024-01-15T13:21:52;3.20;99.90
8593;DHT22;4334;49.982;8.398;2024-01-15T13:24:19;3.00;99.90
8593;DHT22;4334;49.982;8.398;2024-01-15T13:26:46;3.00;99.90
8593;DHT22;4334;49.982;8.398;2024-01-15T13:29:13;3.10;99.90
8593;DHT22;4334;49.982;8.398;2024-01-15T13:31:41;3.30;99.90
8593;DHT22;4334;49.982;8.398;2024-01-15T13:34:08;3.40;99.90
8593;DHT22;4334;49.982;8.398;2024-01-15T13:36:35;3.20;99.90
8593;DHT22;4334;49.982;8.398;2024-01-15T13:39:04;4.80;99.90
8593;DHT22;4334;49.982;8.398;2024-01-15T13:41:34;3.40;99.90
8593;DHT22;4334;49.982;8.398;2024-01-15T13:44:01;3.30;99.90
8593;DHT22;4334;49.982;8.398;2024-01-15T13:46:29;3.30;99.90
8593;DHT22;4334;49.982;8.398;2024-01-15T13:48:57;3.40;99.90
8593;DHT22;4334;49.982;8.398;2024-01-15T13:51:23;3.60;99.90
8593;DHT22;4334;49.982;8.398;2024-01-15T13:53:50;3.60;99.90
8593;DHT22;4334;49.982;8.398;2024-01-15T13:56:18;3.50;99.90
8593;DHT22;4334;49.982;8.398;2024-01-15T13:58:45;3.60;99.90
8593;DHT22;4334;49.982;8.398;2024-01-15T14:01:13;3.70;99.90
8593;DHT22;4334;49.982;8.398;2024-01-15T14:03:40;3.60;99.90
8593;DHT22;4334;49.982;8.398;2024-01-15T14:06:08;3.50;99.90
8593;DHT22;4334;49.982;8.398;2024-01-15T14:08:36;3.50;99.90
8593;DHT22;4334;49.982;8.398;2024-01-15T14:11:03;3.40;99.90
8593;DHT22;4334;49.982;8.398;2024-01-15T14:13:31;3.30;99.90
8593;DHT22;4334;49.982;8.398;2024-01-15T14:15:58;3.30;99.90
8593;DHT22;4334;49.982;8.398;2024-01-15T14:18:25;3.20;99.90
8593;DHT22;4334;49.982;8.398;2024-01-15T14:20:52;3.20;99.90
8593;DHT22;4334;49.982;8.398;2024-01-15T14:23:21;3.10;99.90
8593;DHT22;4334;49.982;8.398;2024-01-15T14:25:47;3.10;99.90
8593;DHT22;4334;49.982;8.398;2024-01-15T14:28:15;3.20;99.90
8593;DHT22;4334;49.982;8.398;2024-01-15T14:30:42;3.20;99.90
8593;DHT22;4334;49.982;8.398;2024-01-15T14:33:08;3.20;99.90
8593;DHT22;4334;49.982;8.398;2024-01-15T14:35:36;3.20;99.90
8593;DHT22;4334;49.982;8.398;2024-01-15T14:38:02;3.20;99.90
8593;DHT22;4334;49.982;8.398;2024-01-15T14:40:30;3.20;99.90
8593;DHT22;4334;49.982;8.398;2024-01-15T14:42:58;3.20;99.90
8593;DHT22;4334;49.982;8.398;2024-01-15T14:45:24;5.20;99.90
8593;DHT22;4334;49.982;8.398;2024-01-15T14:47:52;3.30;99.90
8593;DHT22;4334;49.982;8.398;2024-01-15T14:50:19;3.20;99.90
8593;DHT22;4334;49.982;8.398;2024-01-15T14:52:46;3.00;99.90
8593;DHT22;4334;49.982;8.398;2024-01-15T14:55:12;3.10;99.90
8593;DHT22;4334;49.982;8.398;2024-01-15T14:57:40;3.00;99.90
8593;DHT22;4334;49.982;8.398;2024-01-15T15:00:08;3.00;99.90
8593;DHT22;4334;49.982;8.398;2024-01-15T15:02:35;3.00;99.90
8593;DHT22;4334;49.982;8.398;2024-01-15T15:05:03;3.10;99.90
8593;DHT22;4334;49.982;8.398;2024-01-15T15:07:30;3.00;99.90
8593;DHT22;4334;49.982;8.398;2024-01-15T15:09:56;3.00;99.90
8593;DHT22;4334;49.982;8.398;2024-01-15T15:12:23;3.00;99.90
8593;DHT22;4334;49.982;8.398;2024-01-15T15:14:51;3.10;99.90
8593;DHT22;4334;49.982;8.398;2024-01-15T15:17:18;2.90;99.90
8593;DHT22;4334;49.982;8.398;2024-01-15T15:19:44;3.00;99.90
8593;DHT22;4334;49.982;8.398;2024-01-15T15:22:11;3.70;99.90
8593;DHT22;4334;49.982;8.398;2024-01-15T15:24:38;3.00;99.90
8593;DHT22;4334;49.982;8.398;2024-01-15T15:27:05;2.80;99.90
8593;DHT22;4334;49.982;8.398;2024-01-15T15:29:32;2.70;99.90
8593;DHT22;4334;49.982;8.398;2024-01-15T15:32:00;2.70;99.90
8593;DHT22;4334;49.982;8.398;2024-01-15T15:34:26;2.70;99.90
8593;DHT22;4334;49.982;8.398;2024-01-15T15:36:53;2.60;99.90
8593;DHT22;4334;49.982;8.398;2024-01-15T15:39:20;2.60;99.90
8593;DHT22;4334;49.982;8.398;2024-01-15T15:41:46;2.50;99.90
8593;DHT22;4334;49.982;8.398;2024-01-15T15:44:14;2.50;99.90
8593;DHT22;4334;49.982;8.398;2024-01-15T15:46:42;2.40;99.90
8593;DHT22;4334;49.982;8.398;2024-01-15T15:49:10;2.30;99.90
8593;DHT22;4334;49.982;8.398;2024-01-15T15:51:37;2.20;99.90
8593;DHT22;4334;49.982;8.398;2024-01-15T15:54:04;2.20;99.90
8593;DHT22;4334;49.982;8.398;2024-01-15T15:56:31;3.70;99.90
8593;DHT22;4334;49.982;8.398;2024-01-15T15:58:59;2.10;99.90
8593;DHT22;4334;49.982;8.398;2024-01-15T16:01:27;2.10;99.90
8593;DHT22;4334;49.982;8.398;2024-01-15T16:03:54;2.00;99.90
8593;DHT22;4334;49.982;8.398;2024-01-15T16:06:22;2.00;99.90
8593;DHT22;4334;49.982;8.398;2024-01-15T16:08:49;2.20;99.90